createdAt,value
2022-12-11T00:00:49.773Z,35.70
2022-12-11T00:05:55.851Z,30.70
2022-12-11T00:11:03.556Z,32.50
2022-12-11T00:16:09.059Z,36.00
2022-12-11T00:21:17.235Z,32.03
2022-12-11T00:26:25.151Z,35.07
2022-12-11T00:31:30.135Z,34.20
2022-12-11T00:36:35.245Z,32.83
2022-12-11T00:41:42.700Z,34.30
2022-12-11T00:46:48.965Z,36.07
2022-12-11T00:51:53.948Z,32.33
2022-12-11T00:57:01.431Z,31.03
2022-12-11T01:02:06.357Z,33.10
2022-12-11T01:07:11.259Z,30.87
2022-12-11T01:12:18.776Z,30.33
2022-12-11T01:17:23.735Z,31.33
2022-12-11T01:22:28.829Z,30.70
2022-12-11T01:27:36.617Z,36.27
2022-12-11T01:32:41.527Z,34.97
2022-12-11T01:37:46.541Z,32.23
2022-12-11T01:42:54.103Z,32.20
2022-12-11T01:48:03.739Z,32.60
2022-12-11T01:53:11.688Z,31.10
2022-12-11T01:58:20.578Z,32.33
2022-12-11T02:03:25.987Z,29.63
2022-12-11T02:08:34.184Z,29.13
2022-12-11T02:13:47.831Z,32.07
2022-12-11T02:18:59.338Z,30.80
2022-12-11T02:24:18.618Z,28.30
2022-12-11T02:29:33.430Z,30.37
2022-12-11T02:34:45.313Z,29.03
2022-12-11T02:39:53.680Z,26.50
2022-12-11T02:45:03.527Z,27.57
2022-12-11T02:50:14.310Z,34.03
2022-12-11T02:55:20.354Z,31.93
2022-12-11T03:00:27.846Z,28.57
2022-12-11T03:05:33.531Z,27.93
2022-12-11T03:10:38.597Z,29.17
2022-12-11T03:15:58.296Z,29.17
2022-12-11T03:21:09.495Z,26.93
2022-12-11T03:26:16.481Z,25.43
2022-12-11T03:31:29.924Z,26.60
2022-12-11T03:36:37.814Z,26.47
2022-12-11T03:41:44.795Z,29.93
2022-12-11T03:46:55.291Z,28.47
2022-12-11T03:52:03.573Z,27.70
2022-12-11T03:57:11.532Z,29.70
2022-12-11T04:02:19.122Z,23.90
2022-12-11T04:07:24.015Z,27.30
2022-12-11T04:12:29.012Z,26.50
2022-12-11T04:17:51.352Z,26.90
2022-12-11T04:23:08.683Z,23.50
2022-12-11T04:28:13.650Z,24.47
2022-12-11T04:33:21.185Z,21.20
2022-12-11T04:38:26.319Z,24.73
2022-12-11T04:43:31.485Z,24.77
2022-12-11T04:48:40.276Z,24.90
2022-12-11T04:53:45.892Z,22.40
2022-12-11T04:58:51.471Z,25.03
2022-12-11T05:03:59.015Z,23.63
2022-12-11T05:09:06.481Z,23.23
2022-12-11T05:14:11.763Z,24.50
2022-12-11T05:19:21.237Z,27.63
2022-12-11T05:24:26.130Z,24.23
2022-12-11T05:29:31.237Z,28.10
2022-12-11T05:34:38.777Z,24.10
2022-12-11T05:39:43.742Z,25.97
2022-12-11T05:44:49.757Z,26.07
2022-12-11T05:49:57.222Z,25.93
2022-12-11T05:55:02.425Z,27.17
2022-12-11T06:00:08.012Z,25.37
2022-12-11T06:05:15.600Z,24.17
2022-12-11T06:10:20.692Z,26.40
2022-12-11T06:15:26.189Z,23.17
2022-12-11T06:20:34.104Z,23.23
2022-12-11T06:25:41.425Z,25.20
2022-12-11T06:30:46.582Z,26.07
2022-12-11T06:35:56.858Z,27.50
2022-12-11T06:41:07.793Z,24.23
2022-12-11T06:46:16.081Z,24.13
2022-12-11T06:51:25.853Z,26.37
2022-12-11T06:56:30.795Z,22.63
2022-12-11T07:01:39.505Z,29.27
2022-12-11T07:06:49.526Z,30.37
2022-12-11T07:11:58.464Z,25.80
2022-12-11T07:17:03.827Z,28.77
2022-12-11T07:22:11.477Z,30.00
2022-12-11T07:27:17.709Z,30.40
2022-12-11T07:32:23.238Z,30.50
2022-12-11T07:37:31.257Z,32.63
2022-12-11T07:42:39.255Z,36.63
2022-12-11T07:47:48.280Z,30.47
2022-12-11T07:52:55.921Z,29.97
2022-12-11T07:58:01.377Z,26.73
2022-12-11T08:03:06.853Z,28.20
2022-12-11T08:08:14.677Z,33.33
2022-12-11T08:13:19.810Z,33.00
2022-12-11T08:18:24.685Z,27.97
2022-12-11T08:23:32.199Z,26.07
2022-12-11T08:28:37.434Z,23.07
2022-12-11T08:33:43.072Z,23.37
2022-12-11T08:38:50.785Z,23.80
2022-12-11T08:43:57.796Z,25.00
2022-12-11T08:49:05.441Z,26.57
2022-12-11T08:54:13.721Z,20.13
2022-12-11T08:59:21.377Z,23.10
2022-12-11T09:04:26.719Z,24.60
2022-12-11T09:09:34.579Z,18.50
2022-12-11T09:14:39.739Z,20.63
2022-12-11T09:19:47.240Z,20.70
2022-12-11T09:24:55.259Z,20.37
2022-12-11T09:30:00.139Z,20.77
2022-12-11T09:35:05.946Z,20.87
2022-12-11T09:40:18.853Z,21.93
2022-12-11T09:45:24.424Z,21.03
2022-12-11T09:50:33.399Z,17.53
2022-12-11T09:55:52.773Z,18.97
2022-12-11T10:01:05.616Z,20.20
2022-12-11T10:06:21.250Z,23.43
2022-12-11T10:11:56.096Z,21.43
2022-12-11T10:17:05.629Z,20.33
2022-12-11T10:22:21.525Z,22.47
2022-12-11T10:27:34.464Z,22.23
2022-12-11T10:32:46.289Z,21.73
2022-12-11T10:37:51.532Z,20.30
2022-12-11T10:43:01.340Z,22.67
2022-12-11T10:48:14.206Z,20.77
2022-12-11T10:53:24.473Z,20.27
2022-12-11T10:58:36.867Z,19.70
2022-12-11T11:03:57.719Z,25.47
2022-12-11T11:09:04.919Z,24.10
2022-12-11T11:14:19.738Z,21.83
2022-12-11T11:19:28.349Z,22.23
2022-12-11T11:24:40.407Z,23.23
2022-12-11T11:29:57.479Z,23.57
2022-12-11T11:35:21.840Z,22.40
2022-12-11T11:40:33.029Z,22.30
2022-12-11T11:45:48.815Z,25.87
2022-12-11T11:50:59.651Z,22.50
2022-12-11T11:56:16.108Z,17.57
2022-12-11T12:01:24.315Z,24.20
2022-12-11T12:06:39.071Z,17.77
2022-12-11T12:11:52.468Z,19.27
2022-12-11T12:17:15.464Z,18.30
2022-12-11T12:22:36.232Z,21.87
2022-12-11T12:27:52.990Z,17.47
2022-12-11T12:33:16.974Z,18.07
2022-12-11T12:38:26.887Z,20.27
2022-12-11T12:43:51.262Z,18.27
2022-12-11T12:49:02.447Z,17.80
2022-12-11T12:54:12.572Z,18.83
2022-12-11T12:59:25.572Z,20.07
2022-12-11T13:04:56.068Z,20.53
2022-12-11T13:10:06.732Z,17.97
2022-12-11T13:15:33.102Z,20.40
2022-12-11T13:20:55.813Z,20.50
2022-12-11T13:26:05.147Z,19.13
2022-12-11T13:31:31.006Z,19.67
2022-12-11T13:36:41.085Z,21.77
2022-12-11T13:41:56.278Z,21.57
2022-12-11T13:47:06.093Z,20.90
2022-12-11T13:52:22.958Z,20.47
2022-12-11T13:57:29.760Z,19.57
2022-12-11T14:02:38.386Z,20.27
2022-12-11T14:07:52.023Z,23.73
2022-12-11T14:13:05.213Z,20.97
2022-12-11T14:18:21.138Z,22.23
2022-12-11T14:23:33.555Z,21.60
2022-12-11T14:28:41.145Z,22.30
2022-12-11T14:33:49.642Z,24.60
2022-12-11T14:39:00.833Z,22.70
2022-12-11T14:44:13.372Z,21.87
2022-12-11T14:49:27.800Z,21.73
2022-12-11T14:54:38.697Z,23.77
2022-12-11T14:59:48.751Z,19.97
2022-12-11T15:05:06.911Z,25.07
2022-12-11T15:10:41.224Z,26.57
2022-12-11T15:15:49.133Z,20.83
2022-12-11T15:20:59.548Z,22.17
2022-12-11T15:26:07.624Z,22.83
2022-12-11T15:31:30.775Z,21.03
2022-12-11T15:36:38.503Z,21.53
2022-12-11T15:41:46.636Z,23.43
2022-12-11T15:46:51.580Z,26.37
2022-12-11T15:51:56.477Z,23.17
2022-12-11T15:57:09.446Z,23.87
2022-12-11T16:02:19.226Z,20.87
2022-12-11T16:07:27.660Z,21.03
2022-12-11T16:12:35.892Z,22.87
2022-12-11T16:17:41.535Z,22.23
2022-12-11T16:22:46.521Z,21.77
2022-12-11T16:27:54.010Z,19.60
2022-12-11T16:32:59.263Z,19.90
2022-12-11T16:38:04.230Z,22.17
2022-12-11T16:43:12.551Z,23.10
2022-12-11T16:48:17.481Z,23.13
2022-12-11T16:53:22.510Z,23.80
2022-12-11T16:58:30.094Z,25.63
2022-12-11T17:03:35.355Z,23.27
2022-12-11T17:08:43.659Z,23.60
2022-12-11T17:13:56.130Z,22.80
2022-12-11T17:19:03.382Z,25.33
2022-12-11T17:24:11.154Z,21.57
2022-12-11T17:29:28.622Z,22.70
2022-12-11T17:34:38.349Z,23.13
2022-12-11T17:39:43.780Z,25.00
2022-12-11T17:44:53.149Z,24.27
2022-12-11T17:50:00.110Z,22.00
2022-12-11T17:55:05.063Z,26.73
2022-12-11T18:00:14.280Z,21.73
2022-12-11T18:05:19.334Z,24.90
2022-12-11T18:10:24.625Z,24.20
2022-12-11T18:15:32.343Z,20.87
2022-12-11T18:20:39.949Z,25.43
2022-12-11T18:25:45.097Z,23.23
2022-12-11T18:30:56.573Z,25.17
2022-12-11T18:36:02.303Z,23.27
2022-12-11T18:41:09.750Z,24.67
2022-12-11T18:46:29.811Z,20.30
2022-12-11T18:51:38.047Z,24.20
2022-12-11T18:56:43.694Z,22.43
2022-12-11T19:01:51.960Z,23.70
2022-12-11T19:06:57.669Z,18.87
2022-12-11T19:12:04.976Z,22.07
2022-12-11T19:17:13.695Z,23.40
2022-12-11T19:22:21.475Z,24.93
2022-12-11T19:27:27.387Z,23.70
2022-12-11T19:32:44.316Z,23.30
2022-12-11T19:37:50.589Z,23.97
2022-12-11T19:42:59.412Z,25.77
2022-12-11T19:48:08.393Z,26.40
2022-12-11T19:53:14.404Z,23.27
2022-12-11T19:58:20.342Z,26.43
2022-12-11T20:03:31.615Z,28.17
2022-12-11T20:08:46.257Z,25.43
2022-12-11T20:13:52.499Z,27.90
2022-12-11T20:19:01.879Z,23.73
2022-12-11T20:24:10.199Z,25.90
2022-12-11T20:29:15.908Z,28.53
2022-12-11T20:34:24.223Z,28.73
2022-12-11T20:39:29.884Z,26.20
2022-12-11T20:44:49.460Z,27.70
2022-12-11T20:50:04.014Z,30.93
2022-12-11T20:55:13.197Z,24.73
2022-12-11T21:00:20.763Z,33.43
2022-12-11T21:05:32.118Z,28.70
2022-12-11T21:10:40.086Z,25.77
2022-12-11T21:15:46.425Z,26.67
2022-12-11T21:21:01.531Z,33.17
2022-12-11T21:26:08.243Z,29.63
2022-12-11T21:31:16.476Z,29.93
2022-12-11T21:36:27.786Z,27.97
2022-12-11T21:41:32.980Z,30.73
2022-12-11T21:46:40.714Z,27.43
2022-12-11T21:51:48.427Z,29.03
2022-12-11T21:56:54.737Z,31.83
2022-12-11T22:02:00.429Z,29.87
2022-12-11T22:07:08.056Z,26.73
2022-12-11T22:12:20.202Z,30.73
2022-12-11T22:17:27.580Z,28.77
2022-12-11T22:22:36.330Z,32.67
2022-12-11T22:27:45.123Z,30.37
2022-12-11T22:32:50.074Z,26.33
2022-12-11T22:37:57.883Z,34.07
2022-12-11T22:43:02.899Z,32.33
2022-12-11T22:48:08.713Z,34.87
2022-12-11T22:53:16.257Z,33.70
2022-12-11T22:58:22.071Z,34.37
2022-12-11T23:03:27.156Z,31.47
2022-12-11T23:08:35.016Z,29.43
2022-12-11T23:13:40.231Z,28.73
2022-12-11T23:18:46.993Z,28.83
2022-12-11T23:23:55.323Z,32.40
2022-12-11T23:29:02.065Z,27.97
2022-12-11T23:34:07.670Z,29.13
2022-12-11T23:39:15.591Z,31.50
2022-12-11T23:44:20.627Z,30.67
2022-12-11T23:49:25.513Z,27.03
2022-12-11T23:54:33.371Z,30.60
2022-12-11T23:59:39.521Z,29.73
